METAR des aéroports

 

LFBA - AGEN (Lot-et-Garonne)
Mise à jour: 13/12/2017 10:00
Clair
Clair
 Vent ESE
Vent: ESE 13 km/h
Température: 2°C
Température au Vent: -1°C
Point de Rosée: 1°C
Humidité: 93%
Barometre: 1020 hPa
Visibilité: Supérieure à  10 km
2017/12/13 09:00 LFBA 130900Z AUTO 11007KT CAVOK 02/01 Q1020 TEMPO 3000 -RA
LFKJ - AJACCIO (Corse-du-Sud)
Mise à jour: 13/12/2017 10:00
Clair
Clair
 Vent NE
Vent: NE 9 km/h
Température: 9°C
Température au Vent: 7°C
Point de Rosée: 7°C
Humidité: 87%
Barometre: 1021 hPa
Visibilité: Supérieure à  10 km
2017/12/13 09:00 LFKJ 130900Z AUTO 05005KT 020V080 CAVOK 09/07 Q1021 BECMG 30010KT
 
LFJR - ANGERS (Maine-et-Loire)
Mise à jour: 13/12/2017 10:00
Couvert
Couvert
 Vent WSW
Vent: WSW 19 km/h
Température: 9°C
Température au Vent: 6°C
Point de Rosée: 8°C
Humidité: 94%
Barometre: 1010 hPa
Nuage: Couvert
Visibilité: 10 km
2017/12/13 09:00 LFJR 130900Z AUTO 25010KT 9999 SCT011 BKN016 OVC100 09/08 Q1010 NOSIG
LFLP - ANNECY (Haute-Savoie)
Mise à jour: 13/12/2017 10:00
Clair
Clair
 Vent calm
Vent: Calme
Barometre: 1019 hPa
Visibilité: Supérieure à  10 km
2017/12/13 09:00 LFLP 130900Z AUTO 00000KT CAVOK ///// Q1019 NOSIG
 
LFMV - AVIGNON (Vaucluse)
Mise à jour: 13/12/2017 10:00
Clair
Clair
 Vent SSE
Vent: SSE 4 km/h
Température: 2°C
Point de Rosée: 1°C
Humidité: 93%
Barometre: 1022 hPa
Visibilité: Supérieure à  10 km
2017/12/13 09:00 LFMV 130900Z AUTO 16002KT CAVOK 02/01 Q1022 NOSIG
LFOA - AVORD (Cher)
Mise à jour: 13/12/2017 10:00
Pluie, Couvert
Pluie, Couvert
 Vent S
Vent: S 22 km/h
Température: 5°C
Température au Vent: 1°C
Point de Rosée: 3°C
Humidité: 87%
Barometre: 1012 hPa
Nuage: Couvert
Visibilité: 10 km
2017/12/13 09:00 LFOA 130900Z AUTO 18012KT 9999 RA BKN039 BKN047 OVC060 05/03 Q1012 BECMG 24020G35KT NSW
 
LFSB - BALE - MULHOUSE (Haut-Rhin)
Mise à jour: 13/12/2017 10:00
Quelques nuages
Quelques nuages
 Vent SE
Vent: SE 13 km/h
Température: 0°C
Température au Vent: -4°C
Point de Rosée: -2°C
Humidité: 87%
Barometre: 1016 hPa
Nuage: Quelques nuages
Visibilité: 10 km
2017/12/13 09:00 LFSB 130900Z 14007KT 9999 FEW046 00/M02 Q1016 NOSIG
LFKB - BASTIA (Haute-Corse)
Mise à jour: 13/12/2017 10:00
Clair
Clair
 Vent WSW
Vent: WSW 20 km/h
Température: 12°C
Point de Rosée: -1°C
Humidité: 41%
Barometre: 1018 hPa
Visibilité: Supérieure à  10 km
2017/12/13 09:00 LFKB 130900Z AUTO 25011KT CAVOK 12/M01 Q1018 NOSIG
 
LFOB - BEAUVAIS (Oise)
Mise à jour: 13/12/2017 10:00
Légère pluie, Orageux
Légère pluie, Orageux
 Vent SSW
Vent: SSW 26 km/h
Température: 6°C
Température au Vent: 2°C
Point de Rosée: 5°C
Humidité: 93%
Barometre: 1004 hPa
Nuage: Orageux
Visibilité: 10 km
2017/12/13 09:00 LFOB 130900Z AUTO 21014KT 9999 -RA OVC007/// ///TCU 06/05 Q1004 TEMPO 19020G35KT 3000 RA OVC004
LFBE - BERGERAC (Dordogne)
Mise à jour: 13/12/2017 10:00
Couvert
Couvert
 Vent E
Vent: E 11 km/h
Température: 4°C
Température au Vent: 1°C
Point de Rosée: 2°C
Humidité: 87%
Barometre: 1018 hPa
Nuage: Couvert
Visibilité: 10 km
2017/12/13 09:00 LFBE 130900Z AUTO 09006KT 050V130 9999 OVC041 04/02 Q1018 TEMPO 3000 RA BKN005 OVC015
 
LFMU - BEZIERS (Hérault)
Mise à jour: 13/12/2017 10:00
Clair
Clair
 Vent S
Vent: S 6 km/h
Température: 3°C
Point de Rosée: 0°C
Humidité: 81%
Barometre: 1022 hPa
Visibilité: Supérieure à  10 km
2017/12/13 09:00 LFMU 130900Z AUTO 17003KT CAVOK 03/M00 Q1022 NOSIG
LFBZ - BIARRITZ (Pyrénées-Atlantiques)
Mise à jour: 13/12/2017 10:00
Couvert
Couvert
 Vent S
Vent: S 9 km/h
Température: 9°C
Température au Vent: 7°C
Point de Rosée: 6°C
Humidité: 82%
Barometre: 1020 hPa
Nuage: Couvert
Visibilité: 10 km
2017/12/13 09:00 LFBZ 130900Z AUTO 19005KT 140V240 9999 BKN031 OVC037 09/06 Q1020 TEMPO 3000 -RA
 
LFBD - BORDEAUX (Gironde)
Mise à jour: 13/12/2017 10:00
Pluie, Brouillard, Nuageux
Pluie, Brouillard, Nuageux
 Vent SW
Vent: SW 17 km/h
Température: 8°C
Température au Vent: 5°C
Point de Rosée: 8°C
Humidité: 100%
Barometre: 1017 hPa
Nuage: Nuageux
Visibilité: 5 km
2017/12/13 09:00 LFBD 130900Z AUTO 23009KT 200V260 5000 RA BR FEW009 BKN025 BKN036 08/08 Q1017 TEMPO NSW BKN006 OVC020 BECMG 26015G25KT
LFSL - BRIVE (Correze)
Mise à jour: 13/12/2017 10:00
Couvert
Couvert
 Vent SE
Vent: SE 13 km/h
Température: 3°C
Température au Vent: -1°C
Point de Rosée: 1°C
Humidité: 87%
Barometre: 1018 hPa
Nuage: Couvert
Visibilité: 10 km
2017/12/13 09:00 LFSL 130900Z AUTO 14007KT 9999 BKN035 OVC054 03/01 Q1018 TEMPO BKN012
 
LFRK - CAEN (Calvados)
Mise à jour: 13/12/2017 10:00
Nuageux
Nuageux
 Vent SW
Vent: SW 19 km/h
Température: 8°C
Température au Vent: 4°C
Point de Rosée: 7°C
Humidité: 93%
Barometre: 1005 hPa
Nuage: Nuageux
Visibilité: 10 km
2017/12/13 09:00 LFRK 130900Z AUTO 23010KT 9999 FEW022 BKN030 BKN066 08/07 Q1005 TEMPO SHRA BECMG 22015G27KT
LFKC - CALVI (Haute-Corse)
Mise à jour: 13/12/2017 10:00
Clair
Clair
 Vent S
Vent: S 28 km/h
Température: 13°C
Point de Rosée: 0°C
Humidité: 41%
Barometre: 1019 hPa
Visibilité: Supérieure à  10 km
2017/12/13 09:00 LFKC 130900Z AUTO 19015KT 160V220 CAVOK 13/M00 Q1019 BECMG 20015G25KT
 
LFMD - CANNES (Alpes-Maritimes)
Mise à jour: 13/12/2017 10:00
Clair
Clair
 Vent N
Vent: N 6 km/h
Température: 6°C
Point de Rosée: -1°C
Humidité: 61%
Barometre: 1018 hPa
Visibilité: Supérieure à  10 km
2017/12/13 09:00 LFMD 130900Z AUTO 36003KT 310V040 CAVOK 06/M01 Q1018 BECMG 25010KT
LFMK - CARCASSONNE (Aude)
Mise à jour: 13/12/2017 10:00
Clair
Clair
 Vent calm
Vent: Calme
Température: 0°C
Point de Rosée: -1°C
Humidité: 93%
Barometre: 1022 hPa
Visibilité: Supérieure à  10 km
2017/12/13 09:00 LFMK 130900Z AUTO 00000KT CAVOK M00/M01 Q1022 NOSIG
 
LFBC - CAZAUX (Gironde)
Mise à jour: 13/12/2017 10:00

 Vent SW
Vent: SW 24 km/h
Visibilité: 10 km
2017/12/13 09:00 LFBC 130900Z AUTO 23013KT 9999 4400 RA BKN020 OVC026 11/10 Q1018 TEMPO 24025G35KT 4000 RA BKN010 BKN014
LFLB - CHAMBERY (Savoie)
Mise à jour: 13/12/2017 10:00
Clair
Clair
 Vent S
Vent: S 22 km/h
Température: 2°C
Température au Vent: -3°C
Point de Rosée: -2°C
Humidité: 75%
Barometre: 1021 hPa
Visibilité: Supérieure à  10 km
2017/12/13 09:00 LFLB 130900Z AUTO 18012KT CAVOK 02/M02 Q1021 NOSIG
 
LFOC - CHATEAUDUN (Eure-et-Loir)
Mise à jour: 13/12/2017 10:00
Légère bruine, Brouillard, Couvert
Légère bruine, Brouillard, Couvert
 Vent SW
Vent: SW 37 km/h
Température: 7°C
Température au Vent: 2°C
Point de Rosée: 6°C
Humidité: 93%
Barometre: 1008 hPa
Nuage: Couvert
Visibilité: 5 km
2017/12/13 09:00 LFOC 130900Z AUTO 22020KT 5000 -DZ BR BKN007 OVC011 07/06 Q1008 TEMPO DZRA BECMG 21020G33KT
LFLX - CHATEAUROUX (Indre)
Mise à jour: 13/12/2017 10:00
Légère pluie, Brouillard, Couvert
Légère pluie, Brouillard, Couvert
 Vent SSW
Vent: SSW 41 km/h
Température: 7°C
Température au Vent: 2°C
Point de Rosée: 6°C
Humidité: 93%
Barometre: 1012 hPa
Nuage: Couvert
Visibilité: 3 km
2017/12/13 09:00 LFLX 130900Z AUTO 20022KT 3200 -RA BR BKN014 OVC024 07/06 Q1012 TEMPO 21020G30KT BKN008 BECMG 9999 NSW
 
LFRC - CHERBOURG (Manche)
Mise à jour: 13/12/2017 10:00
Légère pluie, Brouillard, Nuageux
Légère pluie, Brouillard, Nuageux
 Vent W
Vent: W 31 km/h
Température: 8°C
Température au Vent: 3°C
Point de Rosée: 6°C
Humidité: 87%
Barometre: 1004 hPa
Nuage: Nuageux
Visibilité: 5 km
2017/12/13 09:00 LFRC 130900Z AUTO 26017KT 5000 -RA BR SCT016 SCT027 BKN037 08/06 Q1004 BECMG 23020G30KT RA
LFLC - CLERMONT (Puy-De-Dôme)
Mise à jour: 13/12/2017 10:00
Clair
Clair
 Vent S
Vent: S 20 km/h
Température: 3°C
Température au Vent: -2°C
Point de Rosée: -1°C
Humidité: 75%
Barometre: 1016 hPa
Visibilité: Supérieure à  10 km
2017/12/13 09:00 LFLC 130900Z AUTO 17011KT CAVOK 03/M01 Q1016 TEMPO 18015G25KT
 
LFBG - COGNAC (Charente)
Mise à jour: 13/12/2017 10:00
Légère bruine, Couvert
Légère bruine, Couvert
 Vent SSW
Vent: SSW 37 km/h
Température: 9°C
Température au Vent: 4°C
Point de Rosée: 7°C
Humidité: 87%
Barometre: 1015 hPa
Nuage: Couvert
Visibilité: 8 km
2017/12/13 09:00 LFBG 130900Z AUTO 20020KT 8000 -DZ BKN008 OVC013 09/07 Q1015 TEMPO 18015G25KT 3000 RA BECMG BKN020
LFRG - DEAUVILLE (Calvados)
Mise à jour: 13/12/2017 10:00
Couvert
Couvert
 Vent WSW
Vent: WSW 17 km/h
Température: 8°C
Température au Vent: 5°C
Point de Rosée: 7°C
Humidité: 93%
Barometre: 1005 hPa
Nuage: Couvert
Visibilité: 10 km
2017/12/13 09:00 LFRG 130900Z AUTO 25009KT 9999 BKN007 BKN029 OVC048 08/07 Q1005 TEMPO SHRA BECMG 22017G27KT BKN020
 
LFSD - DIJON (Côte d-Or)
Mise à jour: 13/12/2017 10:00
Clair
Clair
 Vent S
Vent: S 17 km/h
Température: 1°C
Température au Vent: -3°C
Point de Rosée: -1°C
Humidité: 87%
Barometre: 1015 hPa
Visibilité: Supérieure à  10 km
2017/12/13 09:00 LFSD 130900Z AUTO 19009KT CAVOK 01/M01 Q1015
LFRD - DINARD (Ille-et-Vilaine)
Mise à jour: 13/12/2017 10:00
Couvert
Couvert
 Vent SW
Vent: SW 19 km/h
Température: 9°C
Température au Vent: 6°C
Point de Rosée: 7°C
Humidité: 87%
Barometre: 1007 hPa
Nuage: Couvert
Visibilité: 10 km
2017/12/13 09:00 LFRD 130900Z AUTO 23010KT 9999 FEW041 OVC082 09/07 Q1007 BECMG 21015G25KT RA
 
LFGJ - DOLE (Jura)
Mise à jour: 13/12/2017 10:00
Nuageux
Nuageux
 Vent S
Vent: S 26 km/h
Température: 3°C
Température au Vent: -2°C
Point de Rosée: -1°C
Humidité: 75%
Barometre: 1016 hPa
Nuage: Nuageux
Visibilité: 10 km
2017/12/13 09:00 LFGJ 130900Z AUTO 18014KT 9999 FEW045 SCT190 BKN220 03/M01 Q1016 BECMG 19015G25KT
FMCZ - DZAOUDZI-PAMANDZI (Mayotte)
Mise à jour: 13/12/2017 10:00
Nuageux
Nuageux
 Vent ENE
Vent: ENE 15 km/h
Température: 29°C
Humidex: 34°C
Point de Rosée: 25°C
Humidité: 79%
Barometre: 1012 hPa
Nuage: Nuageux
Visibilité: 10 km
2017/12/13 09:00 FMCZ 130900Z 06008KT 9999 SCT022 SCT046 BKN160 29/25 Q1012 NOSIG
 
LFOE - EVREUX (Eure)
Mise à jour: 13/12/2017 10:00

 Vent WSW
Vent: WSW 13 km/h
Visibilité: 10 km
2017/12/13 09:00 LFOE 130900Z AUTO 24007KT 200V270 9999 4500 -RA OVC006 07/06 Q1005
LFKF - FIGARI (Corse-du-Sud)
Mise à jour: 13/12/2017 10:00
Clair
Clair
 Vent WSW
Vent: WSW 20 km/h
Température: 13°C
Point de Rosée: 6°C
Humidité: 63%
Barometre: 1020 hPa
Visibilité: Supérieure à  10 km
2017/12/13 09:00 LFKF 130900Z AUTO 25011KT CAVOK 13/06 Q1020 BECMG 27015G25KT
 
LFLS - GRENOBLE (Isère)
Mise à jour: 13/12/2017 10:00
Clair
Clair
 Vent E
Vent: E 15 km/h
Température: 1°C
Température au Vent: -3°C
Point de Rosée: -1°C
Humidité: 87%
Barometre: 1019 hPa
Visibilité: Supérieure à  10 km
2017/12/13 09:00 LFLS 130900Z AUTO 09008KT CAVOK 01/M01 Q1019 NOSIG
LFTH - HYERES (Var)
Mise à jour: 13/12/2017 10:00
Clair
Clair
 Vent WNW
Vent: WNW 13 km/h
Température: 9°C
Température au Vent: 7°C
Point de Rosée: 1°C
Humidité: 58%
Barometre: 1020 hPa
Visibilité: Supérieure à  10 km
2017/12/13 09:00 LFTH 130900Z AUTO 30007KT CAVOK 09/01 Q1020 NOSIG
 
LFMI - ISTRES Bouches-du-Rhône)
Mise à jour: 13/12/2017 10:00
Clair
Clair
 Vent W
Vent: W 9 km/h
Température: 3°C
Température au Vent: 0°C
Point de Rosée: 0°C
Humidité: 81%
Barometre: 1022 hPa
Visibilité: Supérieure à  10 km
2017/12/13 09:00 LFMI 130900Z AUTO 26005KT CAVOK 03/M00 Q1022 NOSIG
LFRI - LA ROCHE SUR YON (Vendée)
Mise à jour: 13/12/2017 10:00
Clair
Clair
 Vent WSW
Vent: WSW 11 km/h
Température: 10°C
Température au Vent: 8°C
Point de Rosée: 8°C
Humidité: 88%
Barometre: 1012 hPa
Visibilité: Supérieure à  10 km
2017/12/13 09:00 LFRI 130900Z AUTO 24006KT CAVOK 10/08 Q1012 NOSIG
 
LFBH - LA ROCHELLE (Charente-Maritime)
Mise à jour: 13/12/2017 10:00
Couvert
Couvert
 Vent WSW
Vent: WSW 17 km/h
Température: 12°C
Point de Rosée: 9°C
Humidité: 82%
Barometre: 1013 hPa
Nuage: Couvert
Visibilité: 10 km
2017/12/13 09:00 LFBH 130900Z AUTO 25009KT 9999 FEW028 SCT050 OVC100 12/09 Q1013 BECMG 26015G25KT
LFRJ - LANDIVISIAU (Finistère)
Mise à jour: 13/12/2017 10:00
Couvert
Couvert
 Vent SW
Vent: SW 26 km/h
Température: 9°C
Température au Vent: 6°C
Point de Rosée: 8°C
Humidité: 94%
Barometre: 1007 hPa
Nuage: Couvert
Visibilité: 10 km
2017/12/13 09:00 LFRJ 130900Z AUTO 23014KT 9999 FEW009/// BKN040/// OVC049/// 09/08 Q1007 BECMG 24018G30KT 4000 RA BKN008 OVC015
 
LFOV - LAVAL (Mayenne)
Mise à jour: 13/12/2017 10:00
Légère pluie, Couvert
Légère pluie, Couvert
 Vent WSW
Vent: WSW 19 km/h
Température: 9°C
Température au Vent: 6°C
Point de Rosée: 7°C
Humidité: 87%
Barometre: 1009 hPa
Nuage: Couvert
Visibilité: 10 km
2017/12/13 09:00 LFOV 130900Z AUTO 25010KT 220V280 9999 -RA FEW021 OVC047 09/07 Q1009
LFOH - LE HAVRE (Seine-Maritime)
Mise à jour: 13/12/2017 10:00
Nuageux
Nuageux
 Vent SW
Vent: SW 24 km/h
Température: 8°C
Température au Vent: 4°C
Point de Rosée: 7°C
Humidité: 93%
Barometre: 1004 hPa
Nuage: Nuageux
Visibilité: 10 km
2017/12/13 09:00 LFOH 130900Z AUTO 22013KT 9999 SCT036 BKN044 BKN100 08/07 Q1004 TEMPO 23025G35KT 4000 RA OVC004
 
TFFF - LE LAMENTIN (Martinique)
Mise à jour: 13/12/2017 10:00
Clair
Clair
 Vent ESE
Vent: ESE 6 km/h
Température: 20°C
Point de Rosée: 20°C
Humidité: 100%
Barometre: 1014 hPa
Visibilité: Supérieure à  10 km
2017/12/13 09:00 TFFF 130900Z AUTO 12003KT CAVOK 20/20 Q1014
LFAT - LE TOUQUET (Pas-de-Calais)
Mise à jour: 13/12/2017 10:00
Clair
Clair
 Vent W
Vent: W 17 km/h
Température: 9°C
Température au Vent: 7°C
Point de Rosée: 6°C
Humidité: 82%
Barometre: 1002 hPa
Visibilité: Supérieure à  10 km
2017/12/13 09:00 LFAT 130900Z AUTO 28009KT 250V310 CAVOK 09/06 Q1002 BECMG 27020G30KT
 
LFQQ - LILLE (Nord)
Mise à jour: 13/12/2017 10:00
Couvert
Couvert
 Vent S
Vent: S 37 km/h
Température: 5°C
Température au Vent: -1°C
Point de Rosée: 5°C
Humidité: 100%
Barometre: 1001 hPa
Nuage: Couvert
Visibilité: 10 km
2017/12/13 09:00 LFQQ 130900Z AUTO 19020KT 9999 OVC006 05/05 Q1001 TEMPO 19020G35KT 3000 RA OVC004
LFBL - LIMOGES (Haute-Vienne)
Mise à jour: 13/12/2017 10:00
Pluie, Brouillard, Orageux
Pluie, Brouillard, Orageux
 Vent S
Vent: S 24 km/h
Température: 3°C
Température au Vent: -2°C
Point de Rosée: 3°C
Humidité: 100%
Barometre: 1015 hPa
Nuage: Orageux
Visibilité: 5 km
2017/12/13 09:00 LFBL 130900Z AUTO 18013KT 4500 RA BR OVC003/// ///TCU 03/03 Q1015 TEMPO 19017G27KT NSW OVC002
 
LFRH - LANN BIHOUE (Morbihan)
Mise à jour: 13/12/2017 10:00
Couvert
Couvert
 Vent WSW
Vent: WSW 22 km/h
Température: 11°C
Point de Rosée: 8°C
Humidité: 82%
Barometre: 1009 hPa
Nuage: Couvert
Visibilité: 10 km
2017/12/13 09:00 LFRH 130900Z AUTO 25012KT 9999 FEW032/// BKN040/// OVC052/// 11/08 Q1009 BECMG 25015G25KT
LFSX - LUXEUIL (Haute-Saône)
Mise à jour: 13/12/2017 10:00
Quelques nuages
Quelques nuages
 Vent ESE
Vent: ESE 17 km/h
Température: 1°C
Température au Vent: -3°C
Point de Rosée: -1°C
Humidité: 87%
Barometre: 1015 hPa
Nuage: Quelques nuages
Visibilité: 10 km
2017/12/13 09:00 LFSX 130900Z AUTO 12009KT 9999 FEW040 01/M01 Q1015 NOSIG
 
LFLY - LYON Bron (Rhône)
Mise à jour: 13/12/2017 10:00
Clair
Clair
 Vent variable
Vent: variable 4 km/h
Température: 1°C
Point de Rosée: -1°C
Humidité: 87%
Barometre: 1019 hPa
Visibilité: Supérieure à  10 km
2017/12/13 09:00 LFLY 130900Z AUTO VRB02KT CAVOK 01/M01 Q1019 NOSIG
LFLL - LYON Saint-Exupery (Rhône)
Mise à jour: 13/12/2017 10:00
Clair
Clair
 Vent SSE
Vent: SSE 15 km/h
Température: 1°C
Température au Vent: -3°C
Point de Rosée: -1°C
Humidité: 87%
Barometre: 1019 hPa
Visibilité: Supérieure à  10 km
2017/12/13 09:00 LFLL 130900Z 15008KT CAVOK 01/M01 Q1019 NOSIG
 
LFML - MARSEILLE PROVENCE (Bouches-du-Rhône)
Mise à jour: 13/12/2017 10:00
Clair
Clair
 Vent SE
Vent: SE 6 km/h
Température: 5°C
Point de Rosée: 0°C
Humidité: 70%
Barometre: 1022 hPa
Visibilité: Supérieure à  10 km
2017/12/13 09:00 LFML 130900Z AUTO 14003KT CAVOK 05/00 Q1022 NOSIG
LFJL - METZ-NANCY LORRAINE (Moselle)
Mise à jour: 13/12/2017 10:00
Clair
Clair
 Vent S
Vent: S 31 km/h
Température: 2°C
Température au Vent: -4°C
Point de Rosée: 0°C
Humidité: 87%
Barometre: 1011 hPa
Visibilité: Supérieure à  10 km
2017/12/13 09:00 LFJL 130900Z AUTO 18017KT CAVOK 02/M00 Q1011 TEMPO 1000 -SN BKN003 BECMG 19015G25KT
 
LFBM - MONT DE MARSAN (Landes)
Mise à jour: 13/12/2017 10:00
Nuageux
Nuageux
 Vent SSW
Vent: SSW 9 km/h
Température: 8°C
Température au Vent: 6°C
Point de Rosée: 2°C
Humidité: 66%
Barometre: 1020 hPa
Nuage: Nuageux
Visibilité: 10 km
2017/12/13 09:00 LFBM 130900Z AUTO 21005KT 170V250 9999 SCT032 SCT049 BKN072 08/02 Q1020 NOSIG
LFMT - MONTPELLIER (Hérault)
Mise à jour: 13/12/2017 10:00
Clair
Clair
 Vent NW
Vent: NW 7 km/h
Température: 4°C
Température au Vent: 2°C
Point de Rosée: 0°C
Humidité: 75%
Barometre: 1022 hPa
Visibilité: Supérieure à  10 km
2017/12/13 09:00 LFMT 130900Z AUTO 32004KT CAVOK 04/M00 Q1022 NOSIG
 
LFRS - NANTES (Loire-Atlantique)
Mise à jour: 13/12/2017 10:00
Nuageux
Nuageux
 Vent WSW
Vent: WSW 11 km/h
Température: 10°C
Température au Vent: 8°C
Point de Rosée: 9°C
Humidité: 94%
Barometre: 1011 hPa
Nuage: Nuageux
Visibilité: 10 km
2017/12/13 09:00 LFRS 130900Z AUTO 24006KT 9999 BKN028 BKN039 BKN046 10/09 Q1011 TEMPO SHRA BKN015TCU BKN040
LFMN - NICE Alpes-Maritimes)
Mise à jour: 13/12/2017 10:00
Quelques nuages
Quelques nuages
 Vent NW
Vent: NW 15 km/h
Température: 8°C
Température au Vent: 5°C
Point de Rosée: -3°C
Humidité: 46%
Barometre: 1017 hPa
Nuage: Quelques nuages
Visibilité: 10 km
2017/12/13 09:00 LFMN 130900Z 32008KT 9999 FEW033 08/M03 Q1017 NOSIG
 
LFMO - ORANGE (Vaucluse)
Mise à jour: 13/12/2017 10:00
Clair
Clair
 Vent variable
Vent: variable 4 km/h
Température: 1°C
Point de Rosée: 0°C
Humidité: 93%
Barometre: 1022 hPa
Visibilité: Supérieure à  10 km
2017/12/13 09:00 LFMO 130900Z AUTO VRB02KT CAVOK 01/M00 Q1022 NOSIG
LFPG - PARIS CH. DE-GAULLE (Val d-Oise)
Mise à jour: 13/12/2017 10:00
Légère pluie, Brouillard, Couvert
Légère pluie, Brouillard, Couvert
 Vent SSW
Vent: SSW 26 km/h
Température: 6°C
Température au Vent: 2°C
Point de Rosée: 5°C
Humidité: 93%
Barometre: 1006 hPa
Nuage: Couvert
Visibilité: 4 km
2017/12/13 09:00 LFPG 130900Z 21014KT 4000 -RA BR OVC007 06/05 Q1006 BECMG 6000 -RA
 
LFPB - PARIS LE BOURGET (Seine-Saint-Denis)
Mise à jour: 13/12/2017 10:00
Légère pluie, Couvert
Légère pluie, Couvert
 Vent SW
Vent: SW 19 km/h
Température: 6°C
Température au Vent: 3°C
Point de Rosée: 5°C
Humidité: 93%
Barometre: 1007 hPa
Nuage: Couvert
Visibilité: 10 km
2017/12/13 09:00 LFPB 130900Z AUTO 22010KT 9999 -RA OVC011 06/05 Q1007 BECMG 20015G25KT SCT015 BKN030
LFPO - PARIS ORLY (Val-de-Marne)
Mise à jour: 13/12/2017 10:00
Légère pluie, Nuageux
Légère pluie, Nuageux
 Vent SSW
Vent: SSW 20 km/h
Température: 6°C
Température au Vent: 2°C
Point de Rosée: 5°C
Humidité: 93%
Barometre: 1007 hPa
Nuage: Nuageux
Visibilité: 6 km
2017/12/13 09:00 LFPO 130900Z 21011KT 6000 -RA BKN007 06/05 Q1007 TEMPO 24020G30KT 3000 RA BKN006
 
LFBP - PAU (Pyrénées-Atlantiques)
Mise à jour: 13/12/2017 10:00
Nuageux
Nuageux
 Vent variable
Vent: variable 4 km/h
Température: 5°C
Point de Rosée: 0°C
Humidité: 70%
Barometre: 1020 hPa
Nuage: Nuageux
Visibilité: 10 km
2017/12/13 09:00 LFBP 130900Z AUTO VRB02KT 9999 FEW034 BKN040 BKN049 05/M00 Q1020 TEMPO 3000 -RA
LFMP - PERPIGNAN (Pyrénées-Orientales)
Mise à jour: 13/12/2017 10:00
Clair
Clair
 Vent variable
Vent: variable 4 km/h
Température: 6°C
Point de Rosée: -5°C
Humidité: 46%
Barometre: 1022 hPa
Visibilité: Supérieure à  10 km
2017/12/13 09:00 LFMP 130900Z AUTO VRB02KT CAVOK 06/M05 Q1022 NOSIG
 
TFFR - Point à Pitre (Guadeloupe)
Mise à jour: 13/12/2017 10:00
Nuageux
Nuageux
 Vent variable
Vent: variable 4 km/h
Température: 22°C
Point de Rosée: 21°C
Humidité: 94%
Barometre: 1014 hPa
Nuage: Nuageux
Visibilité: 10 km
2017/12/13 09:00 TFFR 130900Z AUTO VRB02KT 9999 FEW028 SCT035 BKN042 22/21 Q1014
LFBI - POITIERS (Vienne)
Mise à jour: 13/12/2017 10:00
Légère pluie, Bruine, Couvert
Légère pluie, Bruine, Couvert
 Vent SSW
Vent: SSW 30 km/h
Température: 8°C
Température au Vent: 4°C
Point de Rosée: 7°C
Humidité: 93%
Barometre: 1012 hPa
Nuage: Couvert
Visibilité: 7 km
2017/12/13 09:00 LFBI 130900Z AUTO 20016KT 7000 -RADZ OVC007 08/07 Q1012 TEMPO 20015G25KT 4000 BR BKN003
 
LFRQ - QUIMPER (Finistère)
Mise à jour: 13/12/2017 10:00
Bruine, Brouillard, Nuageux
Bruine, Brouillard, Nuageux
 Vent WSW
Vent: WSW 22 km/h
Température: 10°C
Température au Vent: 7°C
Point de Rosée: 8°C
Humidité: 88%
Barometre: 1008 hPa
Nuage: Nuageux
Visibilité: 5 km
2017/12/13 09:00 LFRQ 130900Z AUTO 24012KT 5000 DZ BR BKN012/// BKN017/// BKN022/// 10/08 Q1008 TEMPO BKN020 BECMG 22015G25KT RA
LFRN - RENNES (Ille-et-Vilaine)
Mise à jour: 13/12/2017 10:00
Clair
Clair
 Vent SW
Vent: SW 13 km/h
Température: 9°C
Température au Vent: 7°C
Point de Rosée: 7°C
Humidité: 87%
Barometre: 1009 hPa
Visibilité: Supérieure à  10 km
2017/12/13 09:00 LFRN 130900Z AUTO 23007KT CAVOK 09/07 Q1009 NOSIG
 
LFCR - RODEZ (Aveyron)
Mise à jour: 13/12/2017 10:00
Clair
Clair
 Vent SE
Vent: SE 11 km/h
Température: 1°C
Température au Vent: -2°C
Point de Rosée: 1°C
Humidité: 100%
Barometre: 1019 hPa
Visibilité: Supérieure à  10 km
2017/12/13 09:00 LFCR 130900Z AUTO 14006KT CAVOK 01/01 Q1019 NOSIG
LFOP - ROUEN (Seine-Maritime)
Mise à jour: 13/12/2017 10:00
Légère pluie, Couvert
Légère pluie, Couvert
 Vent SW
Vent: SW 19 km/h
Température: 7°C
Température au Vent: 4°C
Point de Rosée: 6°C
Humidité: 93%
Nuage: Couvert
Visibilité: 10 km
2017/12/13 09:00 LFOP 130900Z AUTO 22010KT 9999 -RA BKN005 OVC012 07/06 Q//// TEMPO 3000 RA BECMG 20015G25KT
 
LFRT - SAINT-BRIEUC (Côtes d-Armor)
Mise à jour: 13/12/2017 10:00
Couvert
Couvert
 Vent WSW
Vent: WSW 17 km/h
Température: 9°C
Température au Vent: 7°C
Point de Rosée: 7°C
Humidité: 87%
Barometre: 1007 hPa
Nuage: Couvert
Visibilité: 10 km
2017/12/13 09:00 LFRT 130900Z AUTO 25009KT 200V280 9999 FEW018/// OVC070/// 09/07 Q1007
FMEE - Saint-Denis (Réunion)
Mise à jour: 13/12/2017 10:00
Partiellement nuageux
Partiellement nuageux
 Vent E
Vent: E 28 km/h
Température: 31°C
Humidex: 36°C
Point de Rosée: 23°C
Humidité: 62%
Barometre: 1015 hPa
Nuage: Partiellement nuageux
Visibilité: 10 km
2017/12/13 09:00 FMEE 130900Z 08015KT 9999 FEW026 SCT300 31/23 Q1015 NOSIG
 
LFMH - SAINT-ETIENNE (Loire)
Mise à jour: 13/12/2017 10:00
Clair
Clair
 Vent S
Vent: S 15 km/h
Température: 3°C
Température au Vent: -1°C
Point de Rosée: -2°C
Humidité: 70%
Barometre: 1018 hPa
Visibilité: Supérieure à  10 km
2017/12/13 09:00 LFMH 130900Z AUTO 17008KT CAVOK 03/M02 Q1018 TEMPO 18015G25KT
LFRZ - SAINT-NAZAIRE (Loire-Atlantique)
Mise à jour: 13/12/2017 10:00
Couvert
Couvert
 Vent WSW
Vent: WSW 19 km/h
Température: 11°C
Point de Rosée: 8°C
Humidité: 82%
Barometre: 1011 hPa
Nuage: Couvert
Visibilité: 10 km
2017/12/13 09:00 LFRZ 130900Z AUTO 24010KT 9999 FEW036 SCT084 OVC140 11/08 Q1011 TEMPO SHRA BKN015TCU BKN040
 
LFVP - SAINT-PIERRE (St Pierre et Miquelon)
Mise à jour: 13/12/2017 10:00
Légère pluie, Brouillard, Couvert
Légère pluie, Brouillard, Couvert
 Vent E
Vent: E 39 km/h
Température: 5°C
Température au Vent: -1°C
Point de Rosée: 5°C
Humidité: 100%
Barometre: 1010 hPa
Nuage: Couvert
Visibilité: 4 km
2017/12/13 09:00 LFVP 130900Z 10021KT 4200 -RA BR OVC003 05/05 Q1010 NOSIG
LFLN - SAINT-YAN (Saône-et-Loire)
Mise à jour: 13/12/2017 10:00
Clair
Clair
 Vent S
Vent: S 15 km/h
Température: 3°C
Température au Vent: -1°C
Point de Rosée: -2°C
Humidité: 70%
Barometre: 1015 hPa
Visibilité: Supérieure à  10 km
2017/12/13 09:00 LFLN 130900Z AUTO 17008KT CAVOK 03/M02 Q1015 TEMPO 18015G25KT
 
LFMY - SALON (Bouches-du-Rhône)
Mise à jour: 13/12/2017 10:00
Clair
Clair
 Vent calm
Vent: Calme
Température: 4°C
Point de Rosée: 0°C
Humidité: 75%
Barometre: 1021 hPa
Visibilité: Supérieure à  10 km
2017/12/13 09:00 LFMY 130900Z AUTO 00000KT CAVOK 04/M00 Q1021 NOSIG
SOCA - MATURY (Guyane)
Mise à jour: 13/12/2017 10:00
Dense pluie, Brouillard, Orageux
Dense pluie, Brouillard, Orageux
 Vent ESE
Vent: ESE 7 km/h
Température: 24°C
Point de Rosée: 23°C
Humidité: 94%
Barometre: 1012 hPa
Nuage: Orageux
Visibilité: 2 km
2017/12/13 09:00 SOCA 130900Z AUTO 11004KT 050V150 1700 +RA BR FEW006/// BKN015/// BKN021/// ///TCU 24/23 Q1012
 
LFKS - SOLENZARA (Corse-du-Sud)
Mise à jour: 13/12/2017 10:00
Clair
Clair
 Vent WSW
Vent: WSW 9 km/h
Température: 15°C
Point de Rosée: -10°C
Humidité: 17%
Barometre: 1018 hPa
Visibilité: Supérieure à  10 km
2017/12/13 09:00 LFKS 130900Z AUTO 25005KT 210V310 CAVOK 15/M10 Q1018
LFST - STRASBOURG (Bas-Rhin)
Mise à jour: 13/12/2017 10:00
Nuageux
Nuageux
 Vent S
Vent: S 17 km/h
Température: 2°C
Température au Vent: -2°C
Point de Rosée: -2°C
Humidité: 75%
Barometre: 1015 hPa
Nuage: Nuageux
Visibilité: 10 km
2017/12/13 09:00 LFST 130900Z AUTO 19009KT 9999 FEW003 BKN170 02/M02 Q1015 NOSIG
 
LFBT - TARBES - LOURDES (Hautes-Pyrénées)
Mise à jour: 13/12/2017 10:00
Couvert
Couvert
 Vent SSW
Vent: SSW 13 km/h
Température: 6°C
Température au Vent: 3°C
Point de Rosée: -1°C
Humidité: 61%
Barometre: 1020 hPa
Nuage: Couvert
Visibilité: 10 km
2017/12/13 09:00 LFBT 130900Z AUTO 21007KT 9999 BKN045 BKN054 OVC078 06/M01 Q1020 TEMPO 4000 -RA
LFBO - TOULOUSE BLAGNAC (Haute-Garonne)
Mise à jour: 13/12/2017 10:00
Nuageux
Nuageux
 Vent S
Vent: S 4 km/h
Température: 1°C
Point de Rosée: -1°C
Humidité: 87%
Barometre: 1021 hPa
Nuage: Nuageux
Visibilité: 10 km
2017/12/13 09:00 LFBO 130900Z AUTO 18002KT 9999 FEW008 BKN090 BKN170 01/M01 Q1021 NOSIG
 
LFOT - TOURS (Indre-et-Loire)
Mise à jour: 13/12/2017 10:00
Couvert
Couvert
 Vent SSW
Vent: SSW 22 km/h
Température: 8°C
Température au Vent: 4°C
Point de Rosée: 7°C
Humidité: 93%
Barometre: 1010 hPa
Nuage: Couvert
Visibilité: 10 km
2017/12/13 09:00 LFOT 130900Z AUTO 21012KT 180V240 9999 OVC006 08/07 Q1010 TEMPO 20020G30KT 4000 RA
LFPN - TOUSSUS-LE-NOBLE (Yvelines)
Mise à jour: 13/12/2017 10:00
Légère pluie, Couvert
Légère pluie, Couvert
 Vent SSW
Vent: SSW 28 km/h
Température: 5°C
Température au Vent: 1°C
Point de Rosée: 5°C
Humidité: 100%
Barometre: 1006 hPa
Nuage: Couvert
Visibilité: 6 km
2017/12/13 09:00 LFPN 130900Z AUTO 21015KT 170V240 6000 -RA OVC006 05/05 Q1006 TEMPO 24020G30KT 3000 RA
 
LFQB - TROYES (Aube)
Mise à jour: 13/12/2017 10:00
Légère pluie, Orageux
Légère pluie, Orageux
 Vent S
Vent: S 28 km/h
Température: 4°C
Température au Vent: -1°C
Point de Rosée: 2°C
Humidité: 87%
Barometre: 1010 hPa
Nuage: Orageux
Visibilité: 10 km
2017/12/13 09:00 LFQB 130900Z AUTO 17015KT 9999 -RA ///CB 04/02 Q1010
LFSI - SAINT-DIZIER (Haute-Marne)
Mise à jour: 13/12/2017 10:00
Clair
Clair
 Vent S
Vent: S 26 km/h
Température: 5°C
Température au Vent: 1°C
Point de Rosée: 1°C
Humidité: 76%
Barometre: 1010 hPa
Visibilité: Supérieure à  10 km
2017/12/13 09:00 LFSI 130900Z AUTO 18014KT 160V220 CAVOK 05/01 Q1010

Metar display script from Saratoga-Weather.org